createdAt,value
2023-03-07T00:00:45.829Z,14.2
2023-03-07T00:02:02.120Z,14.2
2023-03-07T00:03:18.310Z,14.2
2023-03-07T00:04:34.499Z,14.2
2023-03-07T00:05:50.686Z,14.2
2023-03-07T00:07:06.868Z,14.2
2023-03-07T00:08:23.055Z,14.2
2023-03-07T00:09:39.145Z,14.2
2023-03-07T00:10:55.431Z,14.2
2023-03-07T00:12:10.643Z,14.2
2023-03-07T00:13:26.841Z,14.2
2023-03-07T00:14:42.904Z,14.2
2023-03-07T00:15:59.214Z,14.2
2023-03-07T00:17:15.404Z,14.2
2023-03-07T00:18:31.583Z,14.2
2023-03-07T00:19:47.774Z,14.2
2023-03-07T00:21:03.959Z,14.2
2023-03-07T00:22:20.054Z,14.2
2023-03-07T00:23:36.351Z,14.2
2023-03-07T00:24:52.536Z,14.2
2023-03-07T00:26:08.725Z,14.2
2023-03-07T00:27:24.919Z,14.2
2023-03-07T00:28:40.126Z,14.2
2023-03-07T00:29:56.312Z,14.2
2023-03-07T00:31:12.489Z,14.2
2023-03-07T00:32:28.682Z,14.2
2023-03-07T00:33:44.870Z,14.2
2023-03-07T00:35:01.064Z,14.2
2023-03-07T00:36:17.136Z,14.2
2023-03-07T00:37:33.439Z,14.2
2023-03-07T00:38:49.627Z,14.2
2023-03-07T00:40:05.814Z,14.2
2023-03-07T00:41:21.904Z,14.2
2023-03-07T00:42:38.200Z,14.2
2023-03-07T00:43:54.382Z,14.2
2023-03-07T00:45:09.594Z,14.2
2023-03-07T00:46:25.775Z,14.2
2023-03-07T00:47:41.852Z,14.2
2023-03-07T00:48:58.167Z,14.2
2023-03-07T00:50:14.227Z,14.2
2023-03-07T00:51:30.549Z,14.2
2023-03-07T00:52:46.723Z,14.2
2023-03-07T00:54:02.802Z,14.2
2023-03-07T00:55:19.114Z,14.2
2023-03-07T00:56:35.301Z,14.2
2023-03-07T00:57:51.479Z,14.2
2023-03-07T00:59:07.680Z,14.2
2023-03-07T01:00:23.863Z,14.2
2023-03-07T01:01:38.957Z,14.2
2023-03-07T01:02:55.259Z,14.2
2023-03-07T01:04:11.454Z,14.2
2023-03-07T01:05:27.625Z,14.2
2023-03-07T01:06:43.833Z,14.2
2023-03-07T01:08:00.030Z,14.2
2023-03-07T01:09:16.201Z,14.2
2023-03-07T01:10:32.270Z,14.2
2023-03-07T01:11:48.571Z,14.2
2023-03-07T01:13:04.660Z,14.2
2023-03-07T01:14:20.950Z,14.2
2023-03-07T01:15:37.140Z,14.2
2023-03-07T01:16:53.210Z,14.2
2023-03-07T01:18:08.536Z,14.2
2023-03-07T01:19:24.722Z,14.2
2023-03-07T01:20:40.920Z,14.2
2023-03-07T01:21:57.108Z,14.2
2023-03-07T01:23:13.307Z,14.2
2023-03-07T01:24:29.369Z,14.2
2023-03-07T01:25:45.679Z,14.2
2023-03-07T01:27:01.871Z,14.2
2023-03-07T01:28:18.049Z,14.2
2023-03-07T01:29:34.112Z,14.2
2023-03-07T01:30:50.430Z,14.2
2023-03-07T01:32:06.503Z,14.2
2023-03-07T01:33:22.818Z,14.2
2023-03-07T01:34:38.010Z,14.2
2023-03-07T01:35:54.205Z,14.2
2023-03-07T01:37:10.386Z,14.2
2023-03-07T01:38:26.459Z,14.2
2023-03-07T01:39:42.776Z,14.2
2023-03-07T01:40:58.842Z,14.2
2023-03-07T01:42:15.148Z,14.2
2023-03-07T01:43:31.350Z,14.2
2023-03-07T01:44:47.535Z,14.2
2023-03-07T01:46:03.718Z,14.2
2023-03-07T01:47:19.913Z,14.2
2023-03-07T01:48:36.088Z,14.2
2023-03-07T01:49:52.167Z,14.2
2023-03-07T01:51:07.365Z,14.2
2023-03-07T01:52:23.689Z,14.2
2023-03-07T01:53:39.867Z,14.2
2023-03-07T01:54:55.921Z,14.2
2023-03-07T01:56:12.255Z,14.2
2023-03-07T01:57:28.316Z,14.2
2023-03-07T01:58:44.623Z,14.2
2023-03-07T02:00:00.817Z,14.2
2023-03-07T02:01:16.994Z,14.2
2023-03-07T02:02:33.063Z,14.2
2023-03-07T02:03:49.374Z,14.2
2023-03-07T02:05:05.451Z,14.2
2023-03-07T02:06:21.758Z,14.2
2023-03-07T02:07:36.961Z,14.2
2023-03-07T02:08:53.034Z,14.2
2023-03-07T02:10:09.216Z,14.2
2023-03-07T02:11:25.540Z,14.2
2023-03-07T02:12:41.713Z,14.2
2023-03-07T02:13:56.940Z,14.2
2023-03-07T02:15:13.128Z,14.2
2023-03-07T02:16:29.169Z,14.2
2023-03-07T02:17:45.366Z,14.2
2023-03-07T02:19:01.697Z,14.2
2023-03-07T02:20:17.870Z,14.2
2023-03-07T02:21:34.060Z,14.2
2023-03-07T02:22:50.249Z,14.2
2023-03-07T02:24:06.454Z,14.2
2023-03-07T02:25:22.494Z,14.2
2023-03-07T02:26:38.814Z,14.2
2023-03-07T02:27:54.867Z,14.2
2023-03-07T02:29:11.075Z,14.2
2023-03-07T02:30:27.393Z,14.2
2023-03-07T02:31:42.599Z,14.2
2023-03-07T02:32:58.649Z,14.2
2023-03-07T02:34:14.978Z,14.2
2023-03-07T02:35:31.169Z,14.2
2023-03-07T02:36:47.353Z,14.2
2023-03-07T02:38:03.549Z,14.2
2023-03-07T02:39:19.739Z,14.2
2023-03-07T02:40:35.789Z,14.2
2023-03-07T02:41:51.976Z,14.2
2023-03-07T02:43:08.162Z,14.2
2023-03-07T02:44:24.491Z,14.2
2023-03-07T02:45:40.667Z,14.2
2023-03-07T02:46:56.858Z,14.2
2023-03-07T02:48:12.060Z,14.2
2023-03-07T02:49:28.256Z,14.2
2023-03-07T02:50:44.457Z,14.2
2023-03-07T02:52:00.493Z,14.2
2023-03-07T02:53:16.831Z,14.2
2023-03-07T02:54:33.012Z,14.2
2023-03-07T02:55:49.072Z,14.2
2023-03-07T02:57:05.402Z,14.2
2023-03-07T02:58:21.443Z,14.2
2023-03-07T02:59:37.766Z,14.2
2023-03-07T03:00:53.965Z,14.2
2023-03-07T03:02:10.154Z,14.2
2023-03-07T03:03:26.205Z,14.2
2023-03-07T03:04:41.550Z,14.2
2023-03-07T03:05:57.733Z,14.2
2023-03-07T03:07:13.783Z,14.2
2023-03-07T03:08:30.116Z,14.2
2023-03-07T03:09:46.159Z,14.2
2023-03-07T03:11:02.482Z,14.2
2023-03-07T03:12:18.687Z,14.2
2023-03-07T03:13:34.872Z,14.2
2023-03-07T03:14:51.057Z,14.3
2023-03-07T03:16:07.246Z,14.3
2023-03-07T03:17:23.431Z,14.3
2023-03-07T03:18:39.622Z,14.3
2023-03-07T03:19:55.000Z,14.2
2023-03-07T03:21:11.025Z,14.3
2023-03-07T03:22:27.069Z,14.3
2023-03-07T03:23:43.408Z,14.3
2023-03-07T03:24:59.595Z,14.3
2023-03-07T03:26:15.631Z,14.3
2023-03-07T03:27:31.960Z,14.3
2023-03-07T03:28:48.154Z,14.3
2023-03-07T03:30:04.337Z,14.3
2023-03-07T03:31:20.535Z,14.3
2023-03-07T03:32:36.582Z,14.3
2023-03-07T03:33:52.761Z,14.3
2023-03-07T03:35:09.088Z,14.3
2023-03-07T03:36:25.135Z,14.3
2023-03-07T03:37:40.481Z,14.3
2023-03-07T03:38:56.677Z,14.3
2023-03-07T03:40:12.857Z,14.3
2023-03-07T03:41:28.894Z,14.3
2023-03-07T03:42:45.234Z,14.3
2023-03-07T03:44:01.432Z,14.2
2023-03-07T03:45:17.621Z,14.3
2023-03-07T03:46:33.805Z,14.3
2023-03-07T03:47:49.984Z,14.2
2023-03-07T03:49:06.030Z,14.3
2023-03-07T03:50:22.357Z,14.3
2023-03-07T03:51:38.554Z,14.3
2023-03-07T03:52:54.729Z,14.3
2023-03-07T03:54:09.937Z,14.3
2023-03-07T03:55:26.136Z,14.3
2023-03-07T03:56:42.333Z,14.3
2023-03-07T03:57:58.348Z,14.3
2023-03-07T03:59:14.694Z,14.3
2023-03-07T04:00:30.881Z,14.3
2023-03-07T04:01:47.067Z,14.3
2023-03-07T04:03:03.245Z,14.3
2023-03-07T04:04:19.447Z,14.2
2023-03-07T04:05:35.630Z,14.3
2023-03-07T04:06:51.823Z,14.3
2023-03-07T04:08:08.000Z,14.3
2023-03-07T04:09:24.182Z,14.3
2023-03-07T04:10:39.248Z,14.3
2023-03-07T04:11:55.576Z,14.3
2023-03-07T04:13:11.762Z,14.3
2023-03-07T04:14:27.959Z,14.3
2023-03-07T04:15:44.153Z,14.3
2023-03-07T04:17:00.331Z,14.3
2023-03-07T04:18:16.509Z,14.3
2023-03-07T04:19:32.546Z,14.2
2023-03-07T04:20:48.896Z,14.2
2023-03-07T04:22:04.924Z,14.3
2023-03-07T04:23:21.267Z,14.2
2023-03-07T04:24:37.461Z,14.3
2023-03-07T04:25:53.637Z,14.3
2023-03-07T04:27:08.845Z,14.3
2023-03-07T04:28:25.032Z,14.3
2023-03-07T04:29:41.222Z,14.3
2023-03-07T04:30:57.404Z,14.3
2023-03-07T04:32:13.599Z,14.3
2023-03-07T04:33:29.790Z,14.3
2023-03-07T04:34:45.963Z,14.3
2023-03-07T04:36:02.006Z,14.3
2023-03-07T04:37:18.354Z,14.3
2023-03-07T04:38:34.537Z,14.3
2023-03-07T04:39:50.722Z,14.3
2023-03-07T04:41:06.914Z,14.3
2023-03-07T04:42:23.087Z,14.3
2023-03-07T04:43:38.302Z,14.3
2023-03-07T04:44:54.495Z,14.3
2023-03-07T04:46:10.505Z,14.3
2023-03-07T04:47:26.868Z,14.3
2023-03-07T04:48:42.874Z,14.3
2023-03-07T04:49:59.239Z,14.2
2023-03-07T04:51:15.423Z,14.2
2023-03-07T04:52:31.435Z,14.3
2023-03-07T04:53:47.629Z,14.3
2023-03-07T04:55:03.981Z,14.3
2023-03-07T04:56:20.182Z,14.3
2023-03-07T04:57:36.192Z,14.3
2023-03-07T04:58:52.544Z,14.3
2023-03-07T05:00:07.758Z,14.3
2023-03-07T05:01:23.947Z,14.3
2023-03-07T05:02:40.134Z,14.3
2023-03-07T05:03:56.137Z,14.3
2023-03-07T05:05:12.336Z,14.3
2023-03-07T05:06:28.688Z,14.3
2023-03-07T05:07:44.875Z,14.3
2023-03-07T05:09:01.070Z,14.3
2023-03-07T05:10:17.241Z,14.3
2023-03-07T05:11:33.438Z,14.3
2023-03-07T05:12:49.451Z,14.3
2023-03-07T05:14:05.651Z,14.3
2023-03-07T05:15:22.005Z,14.3
2023-03-07T05:16:37.204Z,14.3
2023-03-07T05:17:53.380Z,14.3
2023-03-07T05:19:09.572Z,14.3
2023-03-07T05:20:25.602Z,14.3
2023-03-07T05:21:41.954Z,14.3
2023-03-07T05:22:58.147Z,14.3
2023-03-07T05:24:14.328Z,14.3
2023-03-07T05:25:30.514Z,14.2
2023-03-07T05:26:46.522Z,14.3
2023-03-07T05:28:02.892Z,14.3
2023-03-07T05:29:19.067Z,14.3
2023-03-07T05:30:35.085Z,14.3
2023-03-07T05:31:51.456Z,14.3
2023-03-07T05:33:06.650Z,14.3
2023-03-07T05:34:22.850Z,14.3
2023-03-07T05:35:38.853Z,14.3
2023-03-07T05:36:55.215Z,14.3
2023-03-07T05:38:11.396Z,14.3
2023-03-07T05:39:27.586Z,14.3
2023-03-07T05:40:43.783Z,14.3
2023-03-07T05:41:59.959Z,14.2
2023-03-07T05:43:15.970Z,14.3
2023-03-07T05:44:32.332Z,14.3
2023-03-07T05:45:48.539Z,14.3
2023-03-07T05:47:04.547Z,14.3
2023-03-07T05:48:20.902Z,14.2
2023-03-07T05:49:36.112Z,14.3
2023-03-07T05:50:52.115Z,14.3
2023-03-07T05:52:08.479Z,14.2
2023-03-07T05:53:24.669Z,14.3
2023-03-07T05:54:40.847Z,14.3
2023-03-07T05:55:57.053Z,14.3
2023-03-07T05:57:13.223Z,14.2
2023-03-07T05:58:29.424Z,14.3
2023-03-07T05:59:45.616Z,14.2
2023-03-07T06:01:01.621Z,14.2
2023-03-07T06:02:17.984Z,14.3
2023-03-07T06:03:34.164Z,14.3
2023-03-07T06:04:50.170Z,14.3
2023-03-07T06:06:05.388Z,14.3
2023-03-07T06:07:21.757Z,14.3
2023-03-07T06:08:37.762Z,14.3
2023-03-07T06:09:54.114Z,14.3
2023-03-07T06:11:10.310Z,14.3
2023-03-07T06:12:26.491Z,14.3
2023-03-07T06:13:42.504Z,14.3
2023-03-07T06:14:58.867Z,14.3
2023-03-07T06:16:15.069Z,14.3
2023-03-07T06:17:31.242Z,14.3
2023-03-07T06:18:47.433Z,14.3
2023-03-07T06:20:03.630Z,14.3
2023-03-07T06:21:19.624Z,14.3
2023-03-07T06:22:35.013Z,14.3
2023-03-07T06:23:51.021Z,14.3
2023-03-07T06:25:07.384Z,14.3
2023-03-07T06:26:23.577Z,14.3
2023-03-07T06:27:39.768Z,14.3
2023-03-07T06:28:54.793Z,14.3
2023-03-07T06:30:11.156Z,14.3
2023-03-07T06:31:27.154Z,14.3
2023-03-07T06:32:43.530Z,14.3
2023-03-07T06:33:59.711Z,14.3
2023-03-07T06:35:15.913Z,14.3
2023-03-07T06:36:32.084Z,14.3
2023-03-07T06:37:48.280Z,14.3
2023-03-07T06:39:04.279Z,14.3
2023-03-07T06:40:20.476Z,14.3
2023-03-07T06:41:36.656Z,14.3
2023-03-07T06:42:52.837Z,14.3
2023-03-07T06:44:09.238Z,14.3
2023-03-07T06:45:24.412Z,14.3
2023-03-07T06:46:40.605Z,14.3
2023-03-07T06:47:56.795Z,14.3
2023-03-07T06:49:12.789Z,14.3
2023-03-07T06:50:29.163Z,14.3
2023-03-07T06:51:45.163Z,14.3
2023-03-07T06:53:01.542Z,14.3
2023-03-07T06:54:17.736Z,14.3
2023-03-07T06:55:33.926Z,14.3
2023-03-07T06:56:50.109Z,14.3
2023-03-07T06:58:06.301Z,14.3
2023-03-07T06:59:22.293Z,14.3
2023-03-07T07:00:38.663Z,14.3
2023-03-07T07:01:53.681Z,14.4
2023-03-07T07:03:09.877Z,14.4
2023-03-07T07:04:26.055Z,14.4
2023-03-07T07:05:42.433Z,14.3
2023-03-07T07:06:58.424Z,14.3
2023-03-07T07:08:14.613Z,14.3
2023-03-07T07:09:30.989Z,14.3
2023-03-07T07:10:47.186Z,14.3
2023-03-07T07:12:03.380Z,14.3
2023-03-07T07:13:19.560Z,14.3
2023-03-07T07:14:35.740Z,14.3
2023-03-07T07:15:51.939Z,14.3
2023-03-07T07:17:08.125Z,14.3
2023-03-07T07:18:23.336Z,14.4
2023-03-07T07:19:39.508Z,14.4
2023-03-07T07:20:55.702Z,14.4
2023-03-07T07:22:11.701Z,14.4
2023-03-07T07:23:28.075Z,14.4
2023-03-07T07:24:44.259Z,14.4
2023-03-07T07:26:00.265Z,14.4
2023-03-07T07:27:16.445Z,14.4
2023-03-07T07:28:32.819Z,14.4
2023-03-07T07:29:49.014Z,14.4
2023-03-07T07:31:05.198Z,14.4
2023-03-07T07:32:21.380Z,14.5
2023-03-07T07:33:37.377Z,14.4
2023-03-07T07:34:52.768Z,14.5
2023-03-07T07:36:08.961Z,14.5
2023-03-07T07:37:24.956Z,14.5
2023-03-07T07:38:41.347Z,14.5
2023-03-07T07:39:57.532Z,14.4
2023-03-07T07:41:13.719Z,14.4
2023-03-07T07:43:46.096Z,14.5
2023-03-07T07:45:02.079Z,14.5
2023-03-07T07:46:18.265Z,14.5
2023-03-07T07:47:34.644Z,14.5
2023-03-07T07:48:50.841Z,14.5
2023-03-07T07:50:07.036Z,14.5
2023-03-07T07:51:22.226Z,14.5
2023-03-07T07:52:38.210Z,14.5
2023-03-07T07:53:54.396Z,14.5
2023-03-07T07:55:10.791Z,14.5
2023-03-07T07:56:26.987Z,14.5
2023-03-07T07:57:43.163Z,14.5
2023-03-07T07:58:59.345Z,14.5
2023-03-07T08:00:15.344Z,14.5
2023-03-07T08:01:31.733Z,14.5
2023-03-07T08:02:47.909Z,14.5
2023-03-07T08:04:04.093Z,14.5
2023-03-07T08:05:20.093Z,14.5
2023-03-07T08:06:36.486Z,14.5
2023-03-07T08:07:51.478Z,14.5
2023-03-07T08:09:07.874Z,14.5
2023-03-07T08:10:24.062Z,14.5
2023-03-07T08:11:40.036Z,14.5
2023-03-07T08:12:56.229Z,14.5
2023-03-07T08:14:12.624Z,14.5
2023-03-07T08:15:28.599Z,14.5
2023-03-07T08:16:44.991Z,14.5
2023-03-07T08:18:01.182Z,14.5
2023-03-07T08:19:17.370Z,14.5
2023-03-07T08:20:33.559Z,14.5
2023-03-07T08:21:49.743Z,14.5
2023-03-07T08:23:05.928Z,14.5
2023-03-07T08:24:22.246Z,14.5
2023-03-07T08:25:38.223Z,14.4
2023-03-07T08:26:54.621Z,14.5
2023-03-07T08:28:10.797Z,14.5
2023-03-07T08:29:26.790Z,14.5
2023-03-07T08:30:43.199Z,14.5
2023-03-07T08:31:59.354Z,14.5
2023-03-07T08:33:15.544Z,14.5
2023-03-07T08:34:31.736Z,14.5
2023-03-07T08:35:47.932Z,14.5
2023-03-07T08:37:03.913Z,14.5
2023-03-07T08:38:20.097Z,14.5
2023-03-07T08:39:36.490Z,14.5
2023-03-07T08:40:51.690Z,14.5
2023-03-07T08:42:07.882Z,14.6
2023-03-07T08:43:23.864Z,14.6
2023-03-07T08:44:40.254Z,14.6
2023-03-07T08:45:56.223Z,14.6
2023-03-07T08:47:12.628Z,14.6
2023-03-07T08:48:28.818Z,14.6
2023-03-07T08:49:45.009Z,14.7
2023-03-07T08:51:00.988Z,14.7
2023-03-07T08:52:17.381Z,14.7
2023-03-07T08:53:33.570Z,14.7
2023-03-07T08:54:49.755Z,14.7
2023-03-07T08:56:05.932Z,14.7
2023-03-07T08:57:21.144Z,14.7
2023-03-07T08:58:37.326Z,14.7
2023-03-07T08:59:53.517Z,14.7
2023-03-07T09:01:09.706Z,14.7
2023-03-07T09:02:25.901Z,14.8
2023-03-07T09:03:42.080Z,14.8
2023-03-07T09:04:58.276Z,14.7
2023-03-07T09:06:14.452Z,14.8
2023-03-07T09:07:30.643Z,14.8
2023-03-07T09:08:46.824Z,14.9
2023-03-07T09:10:03.027Z,14.9
2023-03-07T09:11:19.199Z,14.8
2023-03-07T09:12:35.387Z,14.8
2023-03-07T09:13:50.386Z,14.8
2023-03-07T09:15:06.561Z,14.8
2023-03-07T09:16:22.749Z,14.8
2023-03-07T09:17:39.153Z,14.8
2023-03-07T09:18:55.343Z,14.8
2023-03-07T09:20:11.533Z,14.8
2023-03-07T09:21:27.512Z,14.8
2023-03-07T09:22:43.901Z,14.8
2023-03-07T09:24:00.088Z,14.8
2023-03-07T09:25:16.279Z,14.8
2023-03-07T09:26:32.462Z,14.8
2023-03-07T09:27:48.439Z,14.8
2023-03-07T09:29:04.837Z,14.8
2023-03-07T09:30:20.048Z,14.8
2023-03-07T09:31:36.024Z,14.8
2023-03-07T09:32:52.425Z,14.9
2023-03-07T09:34:08.386Z,14.9
2023-03-07T09:35:24.000Z,14.9
2023-03-07T09:36:40.984Z,15
2023-03-07T09:37:57.179Z,15
2023-03-07T09:39:13.135Z,15
2023-03-07T09:40:29.320Z,15
2023-03-07T09:41:45.734Z,15
2023-03-07T09:43:01.921Z,15
2023-03-07T09:44:18.100Z,15
2023-03-07T09:45:34.290Z,15.1
2023-03-07T09:46:49.499Z,15.2
2023-03-07T09:48:05.687Z,15.2
2023-03-07T09:49:21.889Z,15.2
2023-03-07T09:50:38.170Z,15.2
2023-03-07T09:51:54.357Z,15.2
2023-03-07T09:53:10.333Z,15.2
2023-03-07T09:54:26.737Z,15.2
2023-03-07T09:55:42.930Z,15.1
2023-03-07T09:56:59.111Z,15.1
2023-03-07T09:58:15.298Z,15.1
2023-03-07T09:59:31.495Z,15.1
2023-03-07T10:00:47.455Z,15.1
2023-03-07T10:02:03.629Z,15.1
2023-03-07T10:03:19.054Z,15.1
2023-03-07T10:04:35.250Z,15.1
2023-03-07T10:05:51.221Z,15.1
2023-03-07T10:07:07.630Z,15.1
2023-03-07T10:08:23.809Z,15.1
2023-03-07T10:09:39.993Z,15
2023-03-07T10:10:56.192Z,15.1
2023-03-07T10:12:12.368Z,15.1
2023-03-07T10:13:28.553Z,15.1
2023-03-07T10:14:44.520Z,15.1
2023-03-07T10:16:00.947Z,15.1
2023-03-07T10:17:16.900Z,15.1
2023-03-07T10:18:33.076Z,15.1
2023-03-07T10:19:48.513Z,15.1
2023-03-07T10:21:04.713Z,15.1
2023-03-07T10:22:20.901Z,15.1
2023-03-07T10:23:37.078Z,15.1
2023-03-07T10:24:53.268Z,15.1
2023-03-07T10:26:09.461Z,15.1
2023-03-07T10:27:25.633Z,15
2023-03-07T10:28:41.824Z,15
2023-03-07T10:29:58.025Z,15
2023-03-07T10:31:14.195Z,15
2023-03-07T10:32:30.383Z,15
2023-03-07T10:33:46.587Z,15
2023-03-07T10:35:02.756Z,15.1
2023-03-07T10:36:17.961Z,15.1
2023-03-07T10:37:34.156Z,15
2023-03-07T10:38:50.334Z,15.1
2023-03-07T10:40:06.540Z,15.1
2023-03-07T10:41:22.494Z,15.1
2023-03-07T10:42:38.907Z,15.1
2023-03-07T10:43:54.105Z,15.1
2023-03-07T10:45:10.298Z,15
2023-03-07T10:46:26.484Z,15
2023-03-07T10:47:42.683Z,15
2023-03-07T10:48:58.869Z,15
2023-03-07T10:50:15.045Z,15.1
2023-03-07T10:51:31.245Z,15.1
2023-03-07T10:52:47.183Z,15.1
2023-03-07T10:54:03.629Z,15.1
2023-03-07T10:55:19.806Z,15.1
2023-03-07T10:56:35.753Z,15.2
2023-03-07T10:57:52.186Z,15.2
2023-03-07T10:59:08.360Z,15.2
2023-03-07T11:00:23.576Z,15.1
2023-03-07T11:01:39.748Z,15.1
2023-03-07T11:02:55.713Z,15.1
2023-03-07T11:04:12.137Z,15.1
2023-03-07T11:05:28.318Z,15.1
2023-03-07T11:06:44.511Z,15.1
2023-03-07T11:08:00.000Z,15.1
2023-03-07T11:09:16.634Z,15.1
2023-03-07T11:10:33.058Z,15.1
2023-03-07T11:11:49.246Z,15.1
2023-03-07T11:13:05.450Z,15.1
2023-03-07T11:14:21.632Z,15.1
2023-03-07T11:15:37.574Z,15.1
2023-03-07T11:16:53.021Z,15.1
2023-03-07T11:18:09.212Z,15.1
2023-03-07T11:19:25.403Z,15.1
2023-03-07T11:20:41.352Z,15.1
2023-03-07T11:21:57.778Z,15.1
2023-03-07T11:23:13.967Z,15.1
2023-03-07T11:24:30.140Z,15.1
2023-03-07T11:25:46.086Z,15.1
2023-03-07T11:27:02.272Z,15.1
2023-03-07T11:28:18.705Z,15.1
2023-03-07T11:29:34.895Z,15.1
2023-03-07T11:30:50.841Z,15
2023-03-07T11:32:07.279Z,15
2023-03-07T11:33:22.230Z,15
2023-03-07T11:34:38.418Z,15
2023-03-07T11:35:54.596Z,15
2023-03-07T11:37:11.032Z,15.1
2023-03-07T11:38:27.224Z,15.1
2023-03-07T11:39:43.411Z,15.1
2023-03-07T11:40:59.596Z,15.1
2023-03-07T11:42:15.779Z,15.1
2023-03-07T11:43:31.973Z,15.1
2023-03-07T11:44:48.160Z,15.1
2023-03-07T11:46:04.093Z,15.1
2023-03-07T11:47:20.283Z,15.1
2023-03-07T11:48:36.473Z,15.1
2023-03-07T11:49:51.672Z,15.1
2023-03-07T11:51:08.112Z,15.1
2023-03-07T11:52:24.292Z,15.1
2023-03-07T11:53:40.488Z,15.1
2023-03-07T11:54:56.432Z,15.1
2023-03-07T11:56:12.605Z,15.1
2023-03-07T11:57:29.060Z,15.1
2023-03-07T11:58:45.248Z,15.1
2023-03-07T12:00:01.174Z,15.1
2023-03-07T12:01:17.611Z,15.1
2023-03-07T12:02:33.807Z,15.1
2023-03-07T12:03:49.726Z,15.1
2023-03-07T12:05:06.176Z,15.1
2023-03-07T12:06:21.134Z,15.1
2023-03-07T12:07:37.567Z,15.1
2023-03-07T12:08:53.508Z,15.1
2023-03-07T12:10:09.937Z,15.1
2023-03-07T12:11:26.127Z,15.1
2023-03-07T12:12:42.312Z,15.1
2023-03-07T12:13:58.512Z,15.1
2023-03-07T12:15:14.691Z,15.1
2023-03-07T12:16:30.876Z,15.1
2023-03-07T12:17:47.067Z,15.1
2023-03-07T12:19:03.259Z,15.1
2023-03-07T12:20:19.432Z,15.1
2023-03-07T12:21:35.635Z,15.1
2023-03-07T12:22:50.825Z,15.1
2023-03-07T12:24:06.754Z,15.1
2023-03-07T12:25:23.198Z,15.1
2023-03-07T12:26:39.384Z,15.1
2023-03-07T12:27:55.579Z,15.1
2023-03-07T12:29:11.766Z,15.1
2023-03-07T12:30:27.958Z,15.1
2023-03-07T12:31:44.149Z,15.1
2023-03-07T12:33:00.332Z,15.1
2023-03-07T12:34:16.265Z,15.1
2023-03-07T12:35:32.708Z,15.1
2023-03-07T12:36:48.899Z,15
2023-03-07T12:38:04.823Z,15
2023-03-07T12:39:20.289Z,15
2023-03-07T12:40:36.479Z,15
2023-03-07T12:41:52.663Z,15
2023-03-07T12:43:08.841Z,15
2023-03-07T12:44:24.782Z,15
2023-03-07T12:45:40.963Z,15
2023-03-07T12:46:57.403Z,15.1
2023-03-07T12:48:13.590Z,15
2023-03-07T12:49:29.517Z,15
2023-03-07T12:50:45.973Z,15
2023-03-07T12:52:02.156Z,15
2023-03-07T12:53:18.351Z,15
2023-03-07T12:54:34.278Z,15
2023-03-07T12:55:49.746Z,15
2023-03-07T12:57:05.915Z,15
2023-03-07T12:58:22.108Z,15
2023-03-07T12:59:38.043Z,15
2023-03-07T13:00:54.224Z,15
2023-03-07T13:02:10.679Z,15
2023-03-07T13:03:26.865Z,15
2023-03-07T13:05:59.240Z,15
2023-03-07T13:07:15.420Z,15
2023-03-07T13:08:31.620Z,15
2023-03-07T13:09:47.808Z,15
2023-03-07T13:11:03.734Z,15
2023-03-07T13:12:19.191Z,15
2023-03-07T13:13:35.375Z,15
2023-03-07T13:14:51.561Z,15
2023-03-07T13:16:07.752Z,15
2023-03-07T13:17:23.684Z,14.9
2023-03-07T13:18:40.128Z,15
2023-03-07T13:19:56.327Z,15
2023-03-07T13:21:12.525Z,14.9
2023-03-07T13:22:28.712Z,14.9
2023-03-07T13:23:44.885Z,14.9
2023-03-07T13:25:00.817Z,14.9
2023-03-07T13:26:17.267Z,14.9
2023-03-07T13:27:33.460Z,14.9
2023-03-07T13:28:48.394Z,14.9
2023-03-07T13:30:04.844Z,14.9
2023-03-07T13:31:21.044Z,14.9
2023-03-07T13:32:37.230Z,14.9
2023-03-07T13:33:53.426Z,14.9
2023-03-07T13:35:09.351Z,14.9
2023-03-07T13:36:25.532Z,14.9
2023-03-07T13:37:41.995Z,14.9
2023-03-07T13:38:58.173Z,14.9
2023-03-07T13:40:14.365Z,14.9
2023-03-07T13:41:30.280Z,14.9
2023-03-07T13:42:46.741Z,14.9
2023-03-07T13:44:02.928Z,14.9
2023-03-07T13:45:18.129Z,14.9
2023-03-07T13:46:34.317Z,14.9
2023-03-07T13:47:50.513Z,14.9
2023-03-07T13:49:06.714Z,14.9
2023-03-07T13:50:22.621Z,14.9
2023-03-07T13:51:39.091Z,14.9
2023-03-07T13:52:55.274Z,14.9
2023-03-07T13:54:11.188Z,14.9
2023-03-07T13:55:27.642Z,15
2023-03-07T13:56:43.836Z,15
2023-03-07T13:58:00.024Z,14.9
2023-03-07T13:59:16.211Z,15
2023-03-07T14:00:32.414Z,15
2023-03-07T14:01:47.341Z,15
2023-03-07T14:03:03.527Z,15
2023-03-07T14:04:19.986Z,15
2023-03-07T14:05:35.897Z,15
2023-03-07T14:06:52.087Z,15
2023-03-07T14:08:08.270Z,15
2023-03-07T14:09:24.743Z,15
2023-03-07T14:10:40.663Z,15
2023-03-07T14:11:57.115Z,15
2023-03-07T14:13:13.035Z,15
2023-03-07T14:14:29.502Z,14.9
2023-03-07T14:15:45.687Z,14.9
2023-03-07T14:17:01.882Z,14.9
2023-03-07T14:18:16.796Z,14.9
2023-03-07T14:19:32.998Z,15
2023-03-07T14:20:49.196Z,15
2023-03-07T14:22:05.646Z,15
2023-03-07T14:23:21.847Z,14.9
2023-03-07T14:24:38.024Z,14.9
2023-03-07T14:25:53.947Z,14.9
2023-03-07T14:27:10.406Z,14.9
2023-03-07T14:28:26.593Z,14.9
2023-03-07T14:29:42.782Z,14.9
2023-03-07T14:30:58.982Z,14.9
2023-03-07T14:32:14.875Z,14.9
2023-03-07T14:33:31.361Z,14.9
2023-03-07T14:34:46.559Z,14.9
2023-03-07T14:36:02.464Z,14.9
2023-03-07T14:37:18.930Z,14.9
2023-03-07T14:38:35.121Z,14.9
2023-03-07T14:39:51.308Z,14.9
2023-03-07T14:41:07.212Z,14.9
2023-03-07T14:42:23.683Z,15
2023-03-07T14:43:39.601Z,15
2023-03-07T14:44:56.074Z,15
2023-03-07T14:46:12.256Z,15
2023-03-07T14:47:28.448Z,15
2023-03-07T14:48:44.642Z,15
2023-03-07T14:50:00.826Z,15
2023-03-07T14:51:15.750Z,15
2023-03-07T14:52:31.930Z,15
2023-03-07T14:53:48.405Z,15
2023-03-07T14:55:04.607Z,15
2023-03-07T14:56:20.507Z,15
2023-03-07T14:57:36.680Z,15
2023-03-07T14:58:51.909Z,15
2023-03-07T15:00:08.092Z,15
2023-03-07T15:01:24.268Z,15
2023-03-07T15:02:40.745Z,15
2023-03-07T15:03:56.947Z,15
2023-03-07T15:05:13.125Z,15
2023-03-07T15:06:29.039Z,14.9
2023-03-07T15:07:45.517Z,15
2023-03-07T15:09:01.418Z,15
2023-03-07T15:10:17.588Z,15
2023-03-07T15:11:34.078Z,15
2023-03-07T15:12:50.266Z,15
2023-03-07T15:14:06.164Z,15
2023-03-07T15:15:21.360Z,15
2023-03-07T15:16:37.858Z,15
2023-03-07T15:17:54.041Z,15
2023-03-07T15:19:10.232Z,15
2023-03-07T15:20:26.416Z,15
2023-03-07T15:21:42.310Z,15
2023-03-07T15:22:58.515Z,15
2023-03-07T15:24:14.977Z,15
2023-03-07T15:25:31.177Z,15
2023-03-07T15:26:47.071Z,15
2023-03-07T15:28:03.555Z,14.9
2023-03-07T15:29:19.736Z,14.9
2023-03-07T15:30:35.646Z,15
2023-03-07T15:31:51.140Z,15
2023-03-07T15:33:07.287Z,15
2023-03-07T15:34:23.469Z,15
2023-03-07T15:35:39.700Z,15
2023-03-07T15:36:55.845Z,15
2023-03-07T15:38:12.086Z,15
2023-03-07T15:39:28.274Z,15
2023-03-07T15:40:44.471Z,15
2023-03-07T15:42:00.599Z,14.9
2023-03-07T15:43:16.842Z,14.9
2023-03-07T15:44:32.986Z,14.9
2023-03-07T15:45:49.224Z,14.9
2023-03-07T15:47:05.406Z,14.9
2023-03-07T15:48:20.608Z,14.9
2023-03-07T15:49:36.804Z,14.9
2023-03-07T15:50:52.984Z,14.9
2023-03-07T15:52:09.184Z,14.9
2023-03-07T15:53:25.362Z,14.9
2023-03-07T15:54:41.551Z,14.9
2023-03-07T15:55:57.756Z,14.9
2023-03-07T15:57:13.885Z,14.9
2023-03-07T15:58:30.133Z,14.9
2023-03-07T15:59:46.313Z,14.9
2023-03-07T16:01:02.451Z,14.9
2023-03-07T16:02:18.701Z,14.9
2023-03-07T16:03:34.893Z,14.9
2023-03-07T16:04:50.087Z,14.8
2023-03-07T16:06:06.280Z,14.8
2023-03-07T16:07:22.476Z,14.8
2023-03-07T16:08:38.660Z,14.8
2023-03-07T16:09:54.842Z,14.8
2023-03-07T16:11:11.029Z,14.9
2023-03-07T16:12:27.173Z,14.8
2023-03-07T16:13:43.354Z,14.9
2023-03-07T16:14:59.542Z,14.8
2023-03-07T16:16:15.744Z,14.8
2023-03-07T16:17:31.935Z,14.8
2023-03-07T16:18:48.177Z,14.8
2023-03-07T16:20:04.354Z,14.8
2023-03-07T16:21:19.567Z,14.8
2023-03-07T16:22:35.748Z,14.8
2023-03-07T16:23:51.947Z,14.8
2023-03-07T16:25:08.127Z,14.8
2023-03-07T16:26:24.261Z,14.8
2023-03-07T16:27:40.508Z,14.8
2023-03-07T16:28:56.697Z,14.8
2023-03-07T16:30:12.900Z,14.7
2023-03-07T16:31:29.080Z,14.7
2023-03-07T16:32:45.204Z,14.8
2023-03-07T16:34:01.394Z,14.8
2023-03-07T16:35:17.644Z,14.8
2023-03-07T16:36:33.833Z,14.8
2023-03-07T16:37:48.973Z,14.7
2023-03-07T16:39:05.239Z,14.7
2023-03-07T16:40:21.425Z,14.7
2023-03-07T16:41:37.610Z,14.7
2023-03-07T16:42:53.790Z,14.7
2023-03-07T16:44:09.984Z,14.7
2023-03-07T16:45:26.172Z,14.7
2023-03-07T16:46:42.303Z,14.7
2023-03-07T16:47:58.551Z,14.7
2023-03-07T16:49:14.750Z,14.7
2023-03-07T16:50:30.931Z,14.7
2023-03-07T16:51:47.128Z,14.7
2023-03-07T16:53:03.253Z,14.7
2023-03-07T16:54:18.517Z,14.6
2023-03-07T16:55:34.697Z,14.6
2023-03-07T16:56:50.889Z,14.7
2023-03-07T16:58:07.079Z,14.6
2023-03-07T16:59:23.204Z,14.6
2023-03-07T17:00:39.404Z,14.6
2023-03-07T17:01:55.658Z,14.6
2023-03-07T17:03:11.836Z,14.7
2023-03-07T17:04:27.966Z,14.7
2023-03-07T17:05:44.223Z,14.7